Time;durP1;ratioP1;P1;durP2;ratioP2;P2;SDS_P1;SDS_P2;PMS_P1;PMS_P2;Temp;Humidity;BMP_temperature;BMP_pressure;BME280_temperature;BME280_humidity;BME280_pressure;Samples;Min_cycle;Max_cycle;Signal;HPM_P1;HPM_P2
2021/10/31 00:43:18;;;;;;;3.23;2.53;;;;;;;19.83;58.87;99855.04;;;;-60
2021/10/31 00:46:19;;;;;;;2.86;2.66;;;;;;;19.81;58.84;99851.78;;;;-60
2021/10/31 00:49:18;;;;;;;2.93;2.63;;;;;;;19.80;58.90;99840.51;;;;-60
2021/10/31 00:52:18;;;;;;;2.81;2.33;;;;;;;19.79;58.97;99848.37;;;;-60
2021/10/31 00:55:18;;;;;;;2.88;2.51;;;;;;;19.79;58.92;99844.15;;;;-60
2021/10/31 00:58:18;;;;;;;2.58;2.38;;;;;;;19.78;58.92;99856.36;;;;-60
2021/10/31 01:01:19;;;;;;;2.89;2.43;;;;;;;19.77;58.95;99862.28;;;;-60
2021/10/31 01:04:20;;;;;;;2.90;2.64;;;;;;;19.76;58.97;99857.44;;;;-60
2021/10/31 01:07:18;;;;;;;3.18;2.60;;;;;;;19.76;58.98;99848.66;;;;-60
2021/10/31 01:10:18;;;;;;;2.75;2.55;;;;;;;19.75;58.94;99837.67;;;;-60
2021/10/31 01:13:18;;;;;;;2.60;2.38;;;;;;;19.73;58.91;99839.30;;;;-60
2021/10/31 01:16:18;;;;;;;2.69;2.49;;;;;;;19.73;59.00;99839.23;;;;-60
2021/10/31 01:19:18;;;;;;;3.31;2.49;;;;;;;19.71;58.99;99843.37;;;;-61
2021/10/31 01:24:18;;;;;;;2.75;2.49;;;;;;;19.70;59.00;99842.41;;;;-61
2021/10/31 01:27:18;;;;;;;2.85;2.58;;;;;;;19.70;59.02;99842.55;;;;-60
2021/10/31 01:30:18;;;;;;;2.69;2.49;;;;;;;19.69;59.06;99842.38;;;;-60
2021/10/31 01:33:18;;;;;;;2.83;2.61;;;;;;;19.69;59.02;99822.55;;;;-60
2021/10/31 01:36:18;;;;;;;2.59;2.39;;;;;;;19.67;59.04;99820.86;;;;-61
2021/10/31 01:39:18;;;;;;;2.40;2.20;;;;;;;19.66;59.04;99820.86;;;;-60
2021/10/31 01:42:18;;;;;;;2.77;2.57;;;;;;;19.66;59.06;99825.98;;;;-60
2021/10/31 01:45:18;;;;;;;3.45;2.65;;;;;;;19.65;59.04;99833.22;;;;-61
2021/10/31 01:48:18;;;;;;;2.56;2.36;;;;;;;19.64;59.08;99833.22;;;;-60
2021/10/31 01:51:18;;;;;;;3.31;2.56;;;;;;;19.64;59.06;99833.15;;;;-60
2021/10/31 01:54:19;;;;;;;2.69;2.49;;;;;;;19.64;59.08;99834.61;;;;-60
2021/10/31 01:57:18;;;;;;;2.71;2.51;;;;;;;19.62;59.06;99828.67;;;;-61
2021/10/31 02:00:19;;;;;;;2.61;2.39;;;;;;;19.61;59.07;99821.69;;;;-60
2021/10/31 02:03:18;;;;;;;2.68;2.48;;;;;;;19.60;59.07;99825.75;;;;-61
2021/10/31 02:06:18;;;;;;;2.73;2.53;;;;;;;19.61;59.15;99831.69;;;;-60
2021/10/31 02:09:19;;;;;;;2.95;2.62;;;;;;;19.59;59.12;99827.23;;;;-61
2021/10/31 02:12:20;;;;;;;2.58;2.38;;;;;;;19.58;59.09;99829.02;;;;-60
2021/10/31 02:15:18;;;;;;;2.76;2.49;;;;;;;19.57;59.08;99826.11;;;;-61
2021/10/31 02:18:19;;;;;;;2.80;2.53;;;;;;;19.58;59.12;99831.63;;;;-60
2021/10/31 02:21:19;;;;;;;3.29;2.61;;;;;;;19.56;59.13;99841.45;;;;-60
2021/10/31 02:24:18;;;;;;;2.51;2.31;;;;;;;19.57;59.14;99851.47;;;;-60
2021/10/31 02:27:18;;;;;;;2.59;2.39;;;;;;;19.55;59.18;99848.46;;;;-60
2021/10/31 02:30:18;;;;;;;2.98;2.64;;;;;;;19.55;59.11;99851.06;;;;-60
2021/10/31 02:33:18;;;;;;;2.71;2.47;;;;;;;19.54;59.16;99846.26;;;;-60
2021/10/31 02:36:18;;;;;;;2.74;2.54;;;;;;;19.54;59.15;99844.39;;;;-60
2021/10/31 02:39:18;;;;;;;2.77;2.37;;;;;;;19.53;59.16;99841.73;;;;-60
2021/10/31 02:42:18;;;;;;;2.73;2.53;;;;;;;19.52;59.22;99847.16;;;;-51
2021/10/31 02:45:18;;;;;;;2.61;2.41;;;;;;;19.51;59.18;99849.29;;;;-51
2021/10/31 02:48:20;;;;;;;2.49;2.29;;;;;;;19.51;59.15;99840.69;;;;-51
2021/10/31 02:51:18;;;;;;;2.78;2.58;;;;;;;19.49;59.18;99834.74;;;;-50
2021/10/31 02:54:18;;;;;;;2.87;2.50;;;;;;;19.50;59.20;99834.25;;;;-51
2021/10/31 02:57:18;;;;;;;2.93;2.63;;;;;;;19.48;59.18;99830.83;;;;-51
2021/10/31 03:00:18;;;;;;;2.67;2.47;;;;;;;19.48;59.17;99827.75;;;;-50
2021/10/31 03:03:18;;;;;;;2.44;2.24;;;;;;;19.47;59.22;99825.90;;;;-51
2021/10/31 03:06:18;;;;;;;2.73;2.53;;;;;;;19.47;59.28;99829.15;;;;-51
2021/10/31 03:09:18;;;;;;;2.55;2.35;;;;;;;19.46;59.28;99820.95;;;;-50
2021/10/31 03:12:18;;;;;;;2.51;2.31;;;;;;;19.46;59.21;99818.17;;;;-50
2021/10/31 03:15:18;;;;;;;2.73;2.53;;;;;;;19.45;59.23;99813.80;;;;-50
2021/10/31 03:18:18;;;;;;;2.68;2.48;;;;;;;19.44;59.19;99807.64;;;;-50
2021/10/31 03:21:18;;;;;;;2.51;2.31;;;;;;;19.44;59.24;99806.98;;;;-51
2021/10/31 03:24:18;;;;;;;2.65;2.45;;;;;;;19.44;59.23;99802.98;;;;-50
2021/10/31 03:27:18;;;;;;;2.63;2.43;;;;;;;19.43;59.23;99810.80;;;;-51
2021/10/31 03:30:18;;;;;;;2.62;2.42;;;;;;;19.43;59.26;99812.59;;;;-51
2021/10/31 03:33:18;;;;;;;2.56;2.36;;;;;;;19.42;59.26;99816.58;;;;-50
2021/10/31 03:36:18;;;;;;;2.68;2.44;;;;;;;19.42;59.23;99818.20;;;;-50
2021/10/31 03:39:18;;;;;;;2.70;2.50;;;;;;;19.42;59.25;99816.26;;;;-50
2021/10/31 03:42:18;;;;;;;2.55;2.33;;;;;;;19.41;59.23;99803.41;;;;-51
2021/10/31 03:45:18;;;;;;;2.59;2.37;;;;;;;19.41;59.24;99801.88;;;;-51
2021/10/31 03:48:18;;;;;;;2.51;2.31;;;;;;;19.40;59.27;99796.58;;;;-50
2021/10/31 03:51:18;;;;;;;2.51;2.31;;;;;;;19.40;59.27;99787.48;;;;-50
2021/10/31 03:54:18;;;;;;;2.50;2.30;;;;;;;19.39;59.27;99788.70;;;;-51
2021/10/31 03:57:18;;;;;;;2.47;2.27;;;;;;;19.38;59.30;99791.58;;;;-51
2021/10/31 06:11:18;;;;;;;3.31;3.00;;;;;;;19.25;59.08;99761.06;;;;-61
2021/10/31 06:14:18;;;;;;;3.92;3.09;;;;;;;19.24;58.94;99754.09;;;;-60
2021/10/31 06:17:18;;;;;;;3.39;3.01;;;;;;;19.24;58.94;99750.20;;;;-63
2021/10/31 06:20:18;;;;;;;3.47;3.17;;;;;;;19.24;58.88;99746.95;;;;-61
2021/10/31 06:23:18;;;;;;;3.77;3.19;;;;;;;19.24;58.82;99739.88;;;;-51
2021/10/31 06:26:18;;;;;;;3.89;3.35;;;;;;;19.23;58.89;99741.66;;;;-51
2021/10/31 06:29:18;;;;;;;3.79;3.39;;;;;;;19.22;58.80;99744.44;;;;-51
2021/10/31 06:32:18;;;;;;;4.20;3.35;;;;;;;19.22;58.74;99746.78;;;;-51
2021/10/31 06:35:18;;;;;;;3.76;3.45;;;;;;;19.21;58.73;99747.09;;;;-51
2021/10/31 06:38:18;;;;;;;3.69;3.18;;;;;;;19.21;58.66;99746.78;;;;-51
2021/10/31 06:41:18;;;;;;;6.13;3.40;;;;;;;19.21;58.68;99729.80;;;;-51
2021/10/31 06:44:18;;;;;;;4.21;3.47;;;;;;;19.23;58.71;99716.56;;;;-50
2021/10/31 06:47:18;;;;;;;3.67;3.06;;;;;;;19.23;58.81;99723.38;;;;-50
2021/10/31 07:17:18;;;;;;;3.17;2.83;;;;;;;19.31;59.08;99704.51;;;;-51
2021/10/31 07:20:18;;;;;;;3.85;2.83;;;;;;;19.31;59.13;99706.61;;;;-51
2021/10/31 07:23:18;;;;;;;2.75;2.55;;;;;;;19.31;59.11;99701.34;;;;-51
2021/10/31 07:26:18;;;;;;;3.04;2.69;;;;;;;19.32;59.09;99700.02;;;;-50
2021/10/31 07:29:18;;;;;;;3.45;2.76;;;;;;;19.31;59.15;99697.10;;;;-60
2021/10/31 07:32:19;;;;;;;3.09;2.60;;;;;;;19.32;59.15;99697.58;;;;-61
2021/10/31 07:47:18;;;;;;;3.11;2.60;;;;;;;19.32;59.20;99683.61;;;;-61
2021/10/31 07:50:18;;;;;;;2.80;2.51;;;;;;;19.30;59.17;99681.84;;;;-51
2021/10/31 07:53:18;;;;;;;2.85;2.53;;;;;;;19.31;59.15;99678.58;;;;-51
2021/10/31 07:56:21;;;;;;;3.47;2.55;;;;;;;19.32;59.13;99687.20;;;;-51
2021/10/31 07:59:18;;;;;;;2.67;2.47;;;;;;;19.31;59.14;99681.50;;;;-50
2021/10/31 08:02:18;;;;;;;2.84;2.47;;;;;;;19.30;59.14;99683.80;;;;-50
2021/10/31 08:05:18;;;;;;;2.68;2.48;;;;;;;19.31;59.17;99683.22;;;;-50
2021/10/31 08:08:21;;;;;;;2.55;2.35;;;;;;;19.31;59.18;99681.11;;;;-50
2021/10/31 08:11:18;;;;;;;2.42;2.22;;;;;;;19.31;59.18;99685.34;;;;-50
2021/10/31 08:14:18;;;;;;;2.59;2.31;;;;;;;19.31;59.21;99683.72;;;;-51
2021/10/31 08:17:18;;;;;;;2.92;2.36;;;;;;;19.31;59.17;99680.30;;;;-51
2021/10/31 08:20:18;;;;;;;2.79;2.59;;;;;;;19.30;59.22;99676.62;;;;-50
2021/10/31 08:23:18;;;;;;;3.17;2.42;;;;;;;19.30;59.22;99676.41;;;;-50
2021/10/31 08:26:18;;;;;;;2.44;2.24;;;;;;;19.29;59.26;99676.72;;;;-50
2021/10/31 08:29:21;;;;;;;2.45;2.25;;;;;;;19.29;59.17;99673.64;;;;-60
2021/10/31 08:32:19;;;;;;;3.71;2.50;;;;;;;19.28;59.46;99675.45;;;;-57
2021/10/31 08:35:18;;;;;;;6.23;2.58;;;;;;;19.31;59.53;99671.85;;;;-48
2021/10/31 08:38:18;;;;;;;3.76;2.46;;;;;;;19.32;59.86;99669.72;;;;-60
2021/10/31 08:41:18;;;;;;;2.51;2.31;;;;;;;19.32;59.84;99675.56;;;;-60
2021/10/31 08:44:18;;;;;;;3.02;2.31;;;;;;;19.33;59.81;99667.28;;;;-45
2021/10/31 08:47:18;;;;;;;3.99;2.27;;;;;;;19.36;59.78;99662.62;;;;-58
2021/10/31 08:50:18;;;;;;;4.73;2.30;;;;;;;19.37;59.91;99656.13;;;;-48
2021/10/31 08:53:20;;;;;;;3.73;2.39;;;;;;;19.39;59.76;99651.57;;;;-47
2021/10/31 08:56:18;;;;;;;3.69;2.41;;;;;;;19.38;59.96;99645.98;;;;-51
2021/10/31 08:59:18;;;;;;;5.08;2.40;;;;;;;19.39;59.91;99635.96;;;;-59
2021/10/31 09:02:18;;;;;;;4.13;2.33;;;;;;;19.41;59.86;99631.42;;;;-58
2021/10/31 09:05:18;;;;;;;3.37;2.31;;;;;;;19.41;60.11;99630.59;;;;-48
2021/10/31 09:08:19;;;;;;;3.03;2.38;;;;;;;19.43;60.03;99621.49;;;;-48
2021/10/31 09:11:18;;;;;;;4.79;2.25;;;;;;;19.44;60.01;99615.30;;;;-46
2021/10/31 09:14:18;;;;;;;2.77;2.34;;;;;;;19.45;59.95;99609.45;;;;-50
2021/10/31 09:17:18;;;;;;;2.47;2.26;;;;;;;19.46;59.92;99607.47;;;;-49
2021/10/31 09:20:18;;;;;;;4.29;2.23;;;;;;;19.47;59.92;99600.09;;;;-51
2021/10/31 09:23:18;;;;;;;4.00;2.60;;;;;;;19.48;60.00;99591.78;;;;-45
2021/10/31 09:26:19;;;;;;;3.32;2.31;;;;;;;19.49;59.93;99585.20;;;;-47
2021/10/31 09:29:18;;;;;;;2.56;2.29;;;;;;;19.51;59.86;99583.39;;;;-57
2021/10/31 09:32:18;;;;;;;3.92;2.27;;;;;;;19.52;59.85;99577.69;;;;-47
2021/10/31 09:35:18;;;;;;;3.76;2.39;;;;;;;19.53;59.86;99572.16;;;;-55
2021/10/31 09:38:19;;;;;;;4.00;2.41;;;;;;;19.53;59.82;99569.80;;;;-58
2021/10/31 09:41:18;;;;;;;3.11;2.42;;;;;;;19.52;59.81;99562.42;;;;-58
2021/10/31 09:44:20;;;;;;;3.85;2.23;;;;;;;19.53;59.75;99561.34;;;;-52
2021/10/31 09:47:18;;;;;;;3.79;2.38;;;;;;;19.53;59.69;99553.64;;;;-52
2021/10/31 09:50:18;;;;;;;3.61;2.46;;;;;;;19.52;59.73;99545.12;;;;-51
2021/10/31 09:53:18;;;;;;;3.49;2.35;;;;;;;19.53;59.65;99548.67;;;;-51
2021/10/31 09:56:18;;;;;;;3.39;2.24;;;;;;;19.52;59.61;99551.52;;;;-51
2021/10/31 09:59:24;;;;;;;2.67;2.36;;;;;;;19.52;59.61;99552.98;;;;-59
2021/10/31 10:02:26;;;;;;;2.75;2.11;;;;;;;19.53;59.59;99559.50;;;;-58
2021/10/31 10:05:18;;;;;;;2.36;2.15;;;;;;;19.52;59.53;99556.81;;;;-58
2021/10/31 10:08:18;;;;;;;2.52;2.24;;;;;;;19.52;59.56;99565.58;;;;-58
2021/10/31 10:11:18;;;;;;;2.81;2.10;;;;;;;19.52;59.51;99568.92;;;;-51
2021/10/31 10:14:23;;;;;;;2.30;2.10;;;;;;;19.51;59.53;99558.20;;;;-51
2021/10/31 10:17:18;;;;;;;2.47;2.19;;;;;;;19.51;59.48;99555.11;;;;-51
2021/10/31 10:20:18;;;;;;;2.29;2.09;;;;;;;19.51;59.46;99549.43;;;;-52
2021/10/31 10:23:20;;;;;;;2.56;2.03;;;;;;;19.51;59.40;99549.27;;;;-52
2021/10/31 10:26:18;;;;;;;2.49;2.12;;;;;;;19.53;59.47;99534.85;;;;-58
2021/10/31 10:29:18;;;;;;;2.83;2.05;;;;;;;19.52;59.37;99529.25;;;;-58
2021/10/31 10:32:18;;;;;;;2.35;2.15;;;;;;;19.53;59.31;99524.29;;;;-59
2021/10/31 10:35:18;;;;;;;2.99;2.36;;;;;;;19.53;59.33;99520.87;;;;-51
2021/10/31 10:38:18;;;;;;;6.13;3.29;;;;;;;19.52;59.32;99513.34;;;;-47
2021/10/31 10:41:22;;;;;;;3.40;2.44;;;;;;;19.53;59.69;99509.27;;;;-45
2021/10/31 10:44:18;;;;;;;3.30;2.37;;;;;;;19.55;59.69;99499.41;;;;-52
2021/10/31 10:47:21;;;;;;;5.39;2.98;;;;;;;19.58;59.72;99492.97;;;;-60
2021/10/31 10:50:18;;;;;;;6.31;2.80;;;;;;;19.62;59.84;99493.91;;;;-49
2021/10/31 10:53:18;;;;;;;4.35;2.54;;;;;;;19.67;60.04;99491.09;;;;-48
2021/10/31 11:01:18;;;;;;;5.31;3.26;;;;;;;19.79;59.91;99486.67;;;;-51
2021/10/31 11:04:18;;;;;;;6.45;3.07;;;;;;;19.86;60.10;99479.05;;;;-48
2021/10/31 11:07:18;;;;;;;6.49;2.77;;;;;;;19.89;60.04;99479.27;;;;-48
2021/10/31 11:10:21;;;;;;;4.55;2.76;;;;;;;19.95;60.00;99480.91;;;;-49
2021/10/31 11:13:18;;;;;;;5.93;3.09;;;;;;;20.00;59.97;99477.75;;;;-46
2021/10/31 11:16:18;;;;;;;4.12;2.80;;;;;;;20.03;60.18;99479.86;;;;-60
2021/10/31 11:19:18;;;;;;;5.96;2.85;;;;;;;20.07;59.89;99479.05;;;;-60
2021/10/31 11:22:18;;;;;;;3.11;2.65;;;;;;;20.12;59.87;99471.75;;;;-59
2021/10/31 11:25:18;;;;;;;4.57;2.79;;;;;;;20.16;60.06;99459.01;;;;-56
2021/10/31 11:28:18;;;;;;;3.58;2.65;;;;;;;20.19;59.79;99447.42;;;;-53
2021/10/31 11:31:18;;;;;;;4.03;2.62;;;;;;;20.21;59.91;99441.45;;;;-55
2021/10/31 11:34:18;;;;;;;3.33;2.51;;;;;;;20.24;59.89;99428.02;;;;-52
2021/10/31 11:37:18;;;;;;;8.51;2.98;;;;;;;20.28;59.88;99422.11;;;;-55
2021/10/31 11:40:18;;;;;;;4.79;2.87;;;;;;;20.31;60.02;99418.89;;;;-57
2021/10/31 11:43:18;;;;;;;8.41;2.96;;;;;;;20.33;59.91;99414.77;;;;-51
2021/10/31 11:46:18;;;;;;;5.50;2.95;;;;;;;20.35;59.77;99409.23;;;;-52
2021/10/31 11:49:18;;;;;;;3.68;2.67;;;;;;;20.37;59.95;99397.55;;;;-57
2021/10/31 12:03:19;;;;;;;4.01;2.91;;;;;;;20.40;59.18;99357.71;;;;-57
2021/10/31 12:06:18;;;;;;;3.99;2.87;;;;;;;20.42;59.29;99361.69;;;;-59
2021/10/31 12:13:18;;;;;;;3.56;2.84;;;;;;;20.45;59.16;99349.59;;;;-49
2021/10/31 12:16:18;;;;;;;5.57;2.99;;;;;;;20.47;59.17;99344.28;;;;-49
2021/10/31 12:19:18;;;;;;;4.14;2.75;;;;;;;20.48;59.17;99330.75;;;;-49
2021/10/31 12:22:18;;;;;;;3.94;2.98;;;;;;;20.50;59.07;99319.07;;;;-49
2021/10/31 12:25:18;;;;;;;4.32;2.88;;;;;;;20.51;59.04;99313.13;;;;-49
2021/10/31 12:28:18;;;;;;;4.03;2.65;;;;;;;20.53;59.07;99316.36;;;;-58
2021/10/31 12:31:18;;;;;;;3.62;2.65;;;;;;;20.54;58.98;99312.59;;;;-50
2021/10/31 12:34:19;;;;;;;5.35;3.48;;;;;;;20.55;59.04;99308.58;;;;-60
2021/10/31 12:37:18;;;;;;;3.09;2.53;;;;;;;20.57;59.02;99304.64;;;;-51
2021/10/31 12:43:29;;;;;;;5.62;3.35;;;;;;;20.59;59.00;99282.99;;;;-57
2021/10/31 12:46:48;;;;;;;5.34;3.40;;;;;;;20.59;58.97;99281.67;;;;-51
2021/10/31 12:58:04;;;;;;;3.33;2.74;;;;;;;20.64;58.93;99279.48;;;;-56
2021/10/31 13:01:04;;;;;;;3.52;2.65;;;;;;;20.64;58.87;99279.55;;;;-58
2021/10/31 13:04:04;;;;;;;3.07;2.61;;;;;;;20.64;58.92;99280.28;;;;-50
2021/10/31 13:10:04;;;;;;;3.79;2.75;;;;;;;20.65;58.89;99296.06;;;;-50
2021/10/31 13:13:04;;;;;;;2.80;2.50;;;;;;;20.66;58.94;99293.77;;;;-51
2021/10/31 13:16:04;;;;;;;3.08;2.53;;;;;;;20.66;58.82;99282.60;;;;-50
2021/10/31 13:19:04;;;;;;;3.25;2.68;;;;;;;20.66;58.89;99274.23;;;;-51
2021/10/31 13:22:04;;;;;;;2.53;2.33;;;;;;;20.67;58.90;99272.44;;;;-58
2021/10/31 13:25:04;;;;;;;3.74;2.53;;;;;;;20.67;58.83;99264.70;;;;-58
2021/10/31 13:28:04;;;;;;;3.88;2.39;;;;;;;20.67;58.83;99250.78;;;;-50
2021/10/31 13:35:04;;;;;;;3.06;2.57;;;;;;;20.67;58.78;99242.48;;;;-50
2021/10/31 13:38:04;;;;;;;2.99;2.56;;;;;;;20.68;58.88;99239.52;;;;-50
2021/10/31 13:41:04;;;;;;;2.75;2.55;;;;;;;20.69;58.84;99238.68;;;;-50
2021/10/31 13:44:05;;;;;;;2.75;2.51;;;;;;;20.69;58.77;99236.73;;;;-56
2021/10/31 13:47:30;;;;;;;5.37;2.66;;;;;;;20.69;58.88;99226.47;;;;-56
2021/10/31 13:50:04;;;;;;;3.96;2.40;;;;;;;20.71;58.82;99225.38;;;;-48
2021/10/31 13:53:04;;;;;;;3.21;2.45;;;;;;;20.71;58.85;99216.17;;;;-60
2021/10/31 13:56:04;;;;;;;3.32;2.40;;;;;;;20.71;58.81;99211.62;;;;-61
2021/10/31 13:59:04;;;;;;;2.91;2.63;;;;;;;20.71;58.78;99210.16;;;;-60
2021/10/31 14:02:04;;;;;;;3.07;2.37;;;;;;;20.72;58.79;99205.52;;;;-51
2021/10/31 14:05:04;;;;;;;2.58;2.26;;;;;;;20.72;58.81;99202.59;;;;-51
2021/10/31 14:08:04;;;;;;;4.25;2.57;;;;;;;20.73;58.78;99201.64;;;;-51
2021/10/31 14:11:04;;;;;;;2.91;2.53;;;;;;;20.73;58.79;99199.31;;;;-50
2021/10/31 14:14:04;;;;;;;4.35;2.37;;;;;;;20.73;58.77;99201.01;;;;-50
2021/10/31 14:17:04;;;;;;;5.97;2.65;;;;;;;20.74;58.79;99194.31;;;;-51
2021/10/31 14:20:04;;;;;;;2.81;2.43;;;;;;;20.75;58.77;99187.88;;;;-51
2021/10/31 14:23:04;;;;;;;3.09;2.20;;;;;;;20.75;58.79;99187.61;;;;-48
2021/10/31 14:26:05;;;;;;;3.27;2.47;;;;;;;20.75;58.73;99179.55;;;;-48
2021/10/31 14:29:04;;;;;;;2.56;2.33;;;;;;;20.76;58.78;99177.18;;;;-49
2021/10/31 14:32:04;;;;;;;3.24;2.33;;;;;;;20.76;58.79;99174.39;;;;-48
2021/10/31 14:35:04;;;;;;;2.67;2.31;;;;;;;20.77;58.73;99174.86;;;;-48
2021/10/31 14:38:04;;;;;;;3.32;2.19;;;;;;;20.77;58.77;99175.20;;;;-48
2021/10/31 14:41:04;;;;;;;3.03;2.23;;;;;;;20.78;58.73;99166.48;;;;-48
2021/10/31 14:44:04;;;;;;;2.59;2.18;;;;;;;20.78;58.76;99160.46;;;;-52
2021/10/31 14:47:04;;;;;;;3.61;2.40;;;;;;;20.78;58.77;99160.78;;;;-52
2021/10/31 14:50:04;;;;;;;2.44;2.20;;;;;;;20.79;58.73;99162.22;;;;-60
2021/10/31 14:53:04;;;;;;;2.67;2.09;;;;;;;20.79;58.76;99158.39;;;;-60
2021/10/31 14:56:04;;;;;;;2.55;2.24;;;;;;;20.80;58.73;99145.44;;;;-48
2021/10/31 14:59:06;;;;;;;2.71;2.27;;;;;;;20.80;58.75;99143.55;;;;-52
2021/10/31 15:02:04;;;;;;;2.42;2.10;;;;;;;20.80;58.72;99142.67;;;;-52
2021/10/31 15:05:04;;;;;;;2.49;2.17;;;;;;;20.82;59.03;99145.48;;;;-53
2021/10/31 15:08:04;;;;;;;2.39;2.17;;;;;;;20.85;59.60;99146.13;;;;-54
2021/10/31 15:11:04;;;;;;;2.50;2.30;;;;;;;20.86;59.66;99143.84;;;;-56
2021/10/31 15:14:04;;;;;;;5.60;2.33;;;;;;;20.89;59.75;99138.00;;;;-50
2021/10/31 15:17:04;;;;;;;2.40;2.20;;;;;;;20.90;59.41;99132.85;;;;-51
2021/10/31 15:20:04;;;;;;;5.29;2.40;;;;;;;20.88;59.20;99133.36;;;;-48
2021/10/31 15:23:04;;;;;;;2.74;2.13;;;;;;;20.91;59.48;99133.80;;;;-48
2021/10/31 15:26:04;;;;;;;2.33;2.12;;;;;;;20.93;59.64;99124.39;;;;-49
2021/10/31 15:29:04;;;;;;;3.48;2.20;;;;;;;20.96;59.73;99119.53;;;;-47
2021/10/31 15:32:04;;;;;;;3.27;2.24;;;;;;;20.98;59.38;99115.25;;;;-49
2021/10/31 15:35:04;;;;;;;2.95;2.31;;;;;;;21.03;59.50;99110.59;;;;-49
2021/10/31 15:38:04;;;;;;;3.05;2.39;;;;;;;21.04;59.30;99103.15;;;;-60
2021/10/31 15:41:04;;;;;;;4.47;2.31;;;;;;;20.99;57.99;99086.64;;;;-49
2021/10/31 15:44:04;;;;;;;2.43;2.15;;;;;;;21.01;58.49;99097.04;;;;-59
2021/10/31 15:47:07;;;;;;;3.52;2.27;;;;;;;21.05;58.79;99085.63;;;;-62
2021/10/31 15:50:04;;;;;;;4.53;2.29;;;;;;;21.09;59.08;99093.28;;;;-49
2021/10/31 15:53:04;;;;;;;2.91;2.10;;;;;;;21.13;59.20;99082.52;;;;-49
2021/10/31 15:56:04;;;;;;;2.29;2.09;;;;;;;21.14;59.15;99073.19;;;;-52
2021/10/31 15:59:05;;;;;;;2.79;2.09;;;;;;;21.15;59.27;99071.94;;;;-46
2021/10/31 16:02:07;;;;;;;2.69;2.20;;;;;;;21.17;59.26;99060.02;;;;-50
2021/10/31 16:05:04;;;;;;;2.79;2.10;;;;;;;21.18;59.21;99060.80;;;;-45
2021/10/31 16:08:04;;;;;;;2.46;2.01;;;;;;;21.19;59.50;99062.34;;;;-47
2021/10/31 16:11:04;;;;;;;3.03;2.19;;;;;;;21.19;59.52;99057.27;;;;-47
2021/10/31 16:14:04;;;;;;;3.15;2.07;;;;;;;21.20;59.50;99048.19;;;;-49
2021/10/31 16:17:04;;;;;;;2.87;2.05;;;;;;;21.22;59.43;99049.78;;;;-47
2021/10/31 16:20:04;;;;;;;2.19;2.00;;;;;;;21.24;59.48;99045.52;;;;-49
2021/10/31 16:23:04;;;;;;;2.27;2.00;;;;;;;21.25;59.58;99048.42;;;;-58
2021/10/31 16:26:04;;;;;;;2.25;2.01;;;;;;;21.25;59.36;99040.76;;;;-57
2021/10/31 16:29:04;;;;;;;2.78;2.15;;;;;;;21.26;59.31;99041.29;;;;-59
2021/10/31 16:32:04;;;;;;;2.71;2.06;;;;;;;21.27;59.36;99037.78;;;;-60
2021/10/31 16:35:04;;;;;;;2.15;1.98;;;;;;;21.29;59.37;99044.57;;;;-57
2021/10/31 16:38:04;;;;;;;3.56;2.00;;;;;;;21.30;59.40;99042.12;;;;-48
2021/10/31 16:41:05;;;;;;;4.62;2.03;;;;;;;21.30;59.57;99037.79;;;;-54
2021/10/31 16:44:04;;;;;;;3.07;1.83;;;;;;;21.31;59.62;99042.89;;;;-58
2021/10/31 16:47:06;;;;;;;2.55;1.90;;;;;;;21.30;59.55;99040.95;;;;-58
2021/10/31 16:50:05;;;;;;;2.85;1.99;;;;;;;21.30;59.56;99039.58;;;;-57
2021/10/31 16:53:04;;;;;;;2.83;1.97;;;;;;;21.29;59.50;99032.69;;;;-58
2021/10/31 16:56:04;;;;;;;2.21;2.01;;;;;;;21.29;59.62;99037.41;;;;-48
2021/10/31 16:59:05;;;;;;;2.28;1.90;;;;;;;21.29;59.52;99035.29;;;;-49
2021/10/31 17:02:04;;;;;;;3.62;2.05;;;;;;;21.30;59.52;99031.36;;;;-59
2021/10/31 17:05:05;;;;;;;2.15;1.95;;;;;;;21.30;59.59;99028.27;;;;-59
2021/10/31 17:08:09;;;;;;;3.61;1.90;;;;;;;21.32;59.57;99030.24;;;;-44
2021/10/31 17:11:04;;;;;;;2.18;1.91;;;;;;;21.32;59.53;99029.03;;;;-60
2021/10/31 17:14:06;;;;;;;2.04;1.84;;;;;;;21.33;59.48;99035.52;;;;-58
2021/10/31 17:17:04;;;;;;;2.08;1.88;;;;;;;21.35;59.63;99019.56;;;;-45
2021/10/31 17:20:04;;;;;;;3.15;2.05;;;;;;;21.36;59.07;99034.88;;;;-51
2021/10/31 17:23:06;;;;;;;2.41;1.95;;;;;;;21.35;59.07;99025.03;;;;-51
2021/10/31 17:26:04;;;;;;;2.15;1.95;;;;;;;21.34;58.80;99029.47;;;;-51
2021/10/31 17:29:04;;;;;;;2.63;1.99;;;;;;;21.35;58.76;99035.06;;;;-51
2021/10/31 17:32:04;;;;;;;2.44;1.99;;;;;;;21.34;58.85;99025.23;;;;-58
2021/10/31 17:35:04;;;;;;;2.87;1.91;;;;;;;21.33;58.73;99044.48;;;;-58
2021/10/31 17:38:04;;;;;;;2.20;2.00;;;;;;;21.33;58.63;99041.55;;;;-48
2021/10/31 17:41:04;;;;;;;2.55;1.91;;;;;;;21.33;58.85;99046.28;;;;-50
2021/10/31 17:44:17;;;;;;;3.83;2.01;;;;;;;21.36;59.03;99045.79;;;;-50
2021/10/31 17:47:05;;;;;;;2.01;1.85;;;;;;;21.36;59.09;99038.53;;;;-49
2021/10/31 17:50:05;;;;;;;3.03;2.00;;;;;;;21.37;59.29;99029.78;;;;-49
2021/10/31 17:53:04;;;;;;;2.22;1.98;;;;;;;21.38;59.18;99037.12;;;;-49
2021/10/31 17:56:05;;;;;;;2.92;1.99;;;;;;;21.38;59.29;99045.81;;;;-50
2021/10/31 17:59:04;;;;;;;3.67;1.89;;;;;;;21.38;59.32;99035.47;;;;-50
2021/10/31 18:02:04;;;;;;;2.75;2.01;;;;;;;21.38;58.90;99035.22;;;;-60
2021/10/31 18:05:05;;;;;;;2.30;1.85;;;;;;;21.37;59.06;99043.89;;;;-60
2021/10/31 18:08:04;;;;;;;3.05;1.84;;;;;;;21.35;58.90;99050.95;;;;-53
2021/10/31 18:11:04;;;;;;;1.99;1.79;;;;;;;21.34;58.94;99036.24;;;;-53
2021/10/31 18:14:04;;;;;;;2.99;1.85;;;;;;;21.32;58.88;99039.53;;;;-61
2021/10/31 18:17:04;;;;;;;2.29;1.80;;;;;;;21.31;58.86;99042.64;;;;-54
2021/10/31 18:20:04;;;;;;;1.91;1.81;;;;;;;21.29;58.87;99032.20;;;;-48
2021/10/31 18:23:07;;;;;;;2.03;1.83;;;;;;;21.29;58.85;99049.63;;;;-50
2021/10/31 18:26:04;;;;;;;2.37;1.94;;;;;;;21.26;58.85;99031.67;;;;-50
2021/10/31 18:29:04;;;;;;;2.18;1.96;;;;;;;21.26;58.80;99038.21;;;;-48
2021/10/31 18:32:04;;;;;;;2.21;1.76;;;;;;;21.24;58.80;99042.98;;;;-48
2021/10/31 18:35:04;;;;;;;1.95;1.75;;;;;;;21.23;58.83;99031.42;;;;-48
2021/10/31 18:38:04;;;;;;;1.77;1.67;;;;;;;21.22;58.81;99029.34;;;;-51
2021/10/31 18:41:04;;;;;;;1.83;1.72;;;;;;;21.21;58.77;99025.55;;;;-50
2021/10/31 18:44:04;;;;;;;2.06;1.88;;;;;;;21.19;58.80;99019.55;;;;-50
2021/10/31 18:47:04;;;;;;;2.04;1.84;;;;;;;21.18;58.79;99033.68;;;;-50
2021/10/31 18:50:04;;;;;;;2.03;1.80;;;;;;;21.17;58.84;99034.70;;;;-60
2021/10/31 18:53:04;;;;;;;1.90;1.68;;;;;;;21.15;58.84;99035.61;;;;-54
2021/10/31 18:56:04;;;;;;;3.27;1.85;;;;;;;21.14;59.13;99029.38;;;;-45
2021/10/31 18:59:04;;;;;;;2.49;1.98;;;;;;;21.12;59.25;99015.48;;;;-44
2021/10/31 19:02:04;;;;;;;2.62;1.91;;;;;;;21.12;59.32;99016.20;;;;-54
2021/10/31 19:05:04;;;;;;;2.83;1.73;;;;;;;21.11;59.41;99009.48;;;;-59
2021/10/31 19:08:04;;;;;;;3.68;1.70;;;;;;;21.10;59.59;99011.86;;;;-46
2021/10/31 19:11:04;;;;;;;2.18;1.80;;;;;;;21.10;59.52;99002.25;;;;-46
2021/10/31 19:14:05;;;;;;;2.14;1.93;;;;;;;21.09;59.50;98994.14;;;;-48
2021/10/31 19:17:04;;;;;;;2.25;1.80;;;;;;;21.08;59.40;99000.27;;;;-44
2021/10/31 19:20:04;;;;;;;3.07;1.98;;;;;;;21.07;59.45;99006.17;;;;-52
2021/10/31 19:23:04;;;;;;;2.14;1.94;;;;;;;21.06;59.31;99009.91;;;;-49
2021/10/31 19:26:04;;;;;;;1.85;1.74;;;;;;;21.05;59.36;99010.18;;;;-49
2021/10/31 19:29:04;;;;;;;1.89;1.70;;;;;;;21.03;59.44;99004.53;;;;-48
2021/10/31 19:32:04;;;;;;;3.01;1.89;;;;;;;21.03;59.51;99004.38;;;;-54
2021/10/31 19:35:04;;;;;;;2.98;1.80;;;;;;;21.03;59.63;99001.76;;;;-46
2021/10/31 19:38:04;;;;;;;2.95;2.01;;;;;;;21.02;59.48;99008.31;;;;-50
2021/10/31 19:41:07;;;;;;;2.15;1.89;;;;;;;21.01;59.38;99000.92;;;;-50
2021/10/31 19:44:04;;;;;;;3.18;1.89;;;;;;;20.98;59.33;98993.33;;;;-50
2021/10/31 19:47:04;;;;;;;2.16;1.83;;;;;;;20.97;59.31;98999.55;;;;-46
2021/10/31 19:50:04;;;;;;;2.11;1.86;;;;;;;20.94;59.29;98984.00;;;;-44
2021/10/31 19:53:04;;;;;;;2.81;1.99;;;;;;;20.93;59.29;98995.17;;;;-49
2021/10/31 19:56:04;;;;;;;3.28;2.09;;;;;;;20.90;59.30;98979.67;;;;-44
2021/10/31 19:59:04;;;;;;;2.38;1.97;;;;;;;20.89;59.29;98981.97;;;;-44
2021/10/31 20:02:04;;;;;;;3.33;1.82;;;;;;;20.86;59.25;98982.61;;;;-46
2021/10/31 20:05:04;;;;;;;3.43;1.88;;;;;;;20.85;59.29;98978.48;;;;-56
2021/10/31 20:08:05;;;;;;;2.67;1.94;;;;;;;20.84;59.35;98984.63;;;;-54
2021/10/31 20:11:06;;;;;;;2.06;1.87;;;;;;;20.81;59.30;98987.04;;;;-46
2021/10/31 20:14:05;;;;;;;2.36;2.01;;;;;;;20.79;59.32;98984.16;;;;-47
2021/10/31 20:17:04;;;;;;;3.23;2.09;;;;;;;20.78;59.34;98983.03;;;;-46
2021/10/31 20:20:04;;;;;;;2.49;2.24;;;;;;;20.76;59.35;98984.55;;;;-47
2021/10/31 20:23:04;;;;;;;3.18;2.10;;;;;;;20.75;59.36;98990.76;;;;-50
2021/10/31 20:26:04;;;;;;;2.20;2.00;;;;;;;20.74;59.33;98988.94;;;;-54
2021/10/31 20:29:04;;;;;;;3.14;2.06;;;;;;;20.72;59.24;98984.66;;;;-60
2021/10/31 20:32:04;;;;;;;2.71;2.34;;;;;;;20.69;59.21;98987.72;;;;-60
2021/10/31 20:35:04;;;;;;;2.83;2.27;;;;;;;20.68;59.30;98989.84;;;;-60
2021/10/31 20:38:05;;;;;;;2.54;2.19;;;;;;;20.67;59.37;98987.63;;;;-50
2021/10/31 20:41:04;;;;;;;3.95;2.33;;;;;;;20.65;59.41;98979.86;;;;-50
2021/10/31 20:44:04;;;;;;;4.18;2.17;;;;;;;20.65;59.39;98984.41;;;;-60
2021/10/31 20:47:04;;;;;;;4.90;2.46;;;;;;;20.64;59.63;98978.72;;;;-57
2021/10/31 20:50:04;;;;;;;5.13;2.66;;;;;;;20.65;59.77;98968.20;;;;-44
2021/10/31 20:53:04;;;;;;;6.29;2.25;;;;;;;20.65;59.82;98969.19;;;;-48
2021/10/31 20:56:07;;;;;;;6.95;2.43;;;;;;;20.65;59.81;98966.16;;;;-47
2021/10/31 20:59:06;;;;;;;4.38;2.48;;;;;;;20.65;59.81;98961.68;;;;-48
2021/10/31 21:02:04;;;;;;;4.38;2.42;;;;;;;20.66;59.75;98966.45;;;;-44
2021/10/31 21:05:04;;;;;;;2.94;2.38;;;;;;;20.65;59.76;98966.09;;;;-50
2021/10/31 21:08:04;;;;;;;3.85;2.65;;;;;;;20.66;59.74;98967.03;;;;-48